Terminal Aerodrome Forecast
Issued by NWS Lake Charles, LA

Home | Current Version | Previous Version | Text Only | Print | Product List | Glossary On
Versions: 1 2 3 4 5 6 7 8 9 10 11 12 13 14 15 16 17
600
FTUS44 KLCH 271720
TAFLFT
TAF
KLFT 271720Z 2718/2818 18010KT P6SM VCSH BKN015 BKN025 OVC050
      TEMPO 2718/2719 3SM SHRA SCT015 BKN025 OVC035
     FM271900 17013G21KT P6SM VCTS SCT025 BKN035CB
      TEMPO 2720/2724 3SM TSRA BR BKN025 OVC035CB
     FM280100 16009KT P6SM BKN015
     FM280400 17008KT 3SM BR OVC004=

USA.gov is the U.S. government's official web portal to all federal, state and local government web resources and services.